Time,TemperatureF,DewpointF,PressureIn,WindDirection,WindDirectionDegrees,WindSpeedMPH,WindSpeedGustMPH,Humidity,HourlyPrecipIn,Conditions,Clouds,dailyrainin,SoftwareType,DateUTC
2013-02-19 00:20:00,21.1,-23.5,-100.00,West,279,3.4,10.3,12,0.00,n/a,n/a,-99.99,Henriksen +1-Wire,2013-02-19 05:20:00,
2013-02-19 00:30:00,21.1,-23.4,-100.00,West,278,2.7,8.4,12,0.00,n/a,n/a,-99.99,Henriksen +1-Wire,2013-02-19 05:30:00,
2013-02-19 00:40:00,21.0,-21.2,-100.00,WNW,289,0.0,7.2,14,0.00,n/a,n/a,-99.99,Henriksen +1-Wire,2013-02-19 05:40:00,
2013-02-19 00:50:00,20.9,-20.3,-100.00,West,276,0.0,3.1,14,0.00,n/a,n/a,-99.99,Henriksen +1-Wire,2013-02-19 05:50:00,
2013-02-19 01:00:00,20.7,-21.4,-100.00,NW,316,1.0,5.2,14,0.00,n/a,n/a,-99.99,Henriksen +1-Wire,2013-02-19 06:00:00,
2013-02-19 01:10:00,20.8,-26.6,-100.00,WNW,289,0.5,6.2,10,0.00,n/a,n/a,-99.99,Henriksen +1-Wire,2013-02-19 06:10:00,
2013-02-19 01:20:00,20.1,-27.1,-100.00,SE,139,0.0,0.0,10,0.00,n/a,n/a,-99.99,Henriksen +1-Wire,2013-02-19 06:20:00,
2013-02-19 01:30:00,19.4,-30.2,-100.00,WNW,289,0.1,4.2,9,0.00,n/a,n/a,-99.99,Henriksen +1-Wire,2013-02-19 06:30:00,
2013-02-19 01:40:00,19.6,-29.1,-100.00,West,277,0.1,4.2,10,0.00,n/a,n/a,-99.99,Henriksen +1-Wire,2013-02-19 06:40:00,
2013-02-19 01:50:00,19.4,-32.0,-100.00,WNW,284,0.0,0.0,8,0.00,n/a,n/a,-99.99,Henriksen +1-Wire,2013-02-19 06:50:00,
2013-02-19 02:00:00,20.0,-27.9,-100.00,WNW,285,1.4,5.2,10,0.00,n/a,n/a,-99.99,Henriksen +1-Wire,2013-02-19 07:00:00,
2013-02-19 02:10:00,20.2,-27.9,-100.00,WNW,285,1.1,6.2,10,0.00,n/a,n/a,-99.99,Henriksen +1-Wire,2013-02-19 07:10:00,
2013-02-19 02:20:00,20.6,-24.2,-100.00,WNW,292,2.5,7.3,12,0.00,n/a,n/a,-99.99,Henriksen +1-Wire,2013-02-19 07:20:00,
2013-02-19 02:30:00,21.0,-22.9,-100.00,WNW,285,2.3,8.4,13,0.00,n/a,n/a,-99.99,Henriksen +1-Wire,2013-02-19 07:30:00,
2013-02-19 02:40:00,21.3,-21.4,-100.00,WNW,291,2.9,7.3,13,0.00,n/a,n/a,-99.99,Henriksen +1-Wire,2013-02-19 07:40:00,
2013-02-19 02:50:00,21.5,-22.7,-100.00,WNW,286,3.1,8.4,12,0.00,n/a,n/a,-99.99,Henriksen +1-Wire,2013-02-19 07:50:00,
2013-02-19 03:00:00,21.8,-20.4,-100.00,WNW,282,2.7,11.6,14,0.00,n/a,n/a,-99.99,Henriksen +1-Wire,2013-02-19 08:00:00,
2013-02-19 03:10:00,21.7,-19.1,-100.00,WNW,285,2.9,6.2,15,0.00,n/a,n/a,-99.99,Henriksen +1-Wire,2013-02-19 08:10:00,
2013-02-19 03:20:00,21.6,-17.5,-100.00,WNW,299,1.9,7.3,16,0.00,n/a,n/a,-99.99,Henriksen +1-Wire,2013-02-19 08:20:00,
2013-02-19 03:30:00,21.6,-16.8,-100.00,WNW,287,1.6,6.2,17,0.00,n/a,n/a,-99.99,Henriksen +1-Wire,2013-02-19 08:30:00,
2013-02-19 03:40:00,21.3,-19.1,-100.00,WNW,290,0.8,3.1,15,0.00,n/a,n/a,-99.99,Henriksen +1-Wire,2013-02-19 08:40:00,
2013-02-19 03:50:00,20.8,-22.7,-100.00,WNW,289,0.0,3.2,13,0.00,n/a,n/a,-99.99,Henriksen +1-Wire,2013-02-19 08:50:00,
2013-02-19 04:00:00,19.6,-25.1,-100.00,WNW,287,0.2,5.2,12,0.00,n/a,n/a,-99.99,Henriksen +1-Wire,2013-02-19 09:00:00,
2013-02-19 04:10:00,20.3,-23.4,-100.00,WNW,285,1.2,5.1,13,0.00,n/a,n/a,-99.99,Henriksen +1-Wire,2013-02-19 09:10:00,
2013-02-19 04:20:00,20.4,-31.8,-100.00,NNW,327,0.0,2.0,8,0.00,n/a,n/a,-99.99,Henriksen +1-Wire,2013-02-19 09:20:00,
2013-02-19 04:30:00,19.4,-35.1,-100.00,West,280,0.0,0.0,7,0.00,n/a,n/a,-99.99,Henriksen +1-Wire,2013-02-19 09:30:00,
2013-02-19 04:40:00,19.3,-47.5,-100.00,WSW,248,0.0,0.0,3,0.00,n/a,n/a,-99.99,Henriksen +1-Wire,2013-02-19 09:40:00,
2013-02-19 04:50:00,19.9,-48.0,-100.00,WSW,245,0.0,0.0,3,0.00,n/a,n/a,-99.99,Henriksen +1-Wire,2013-02-19 09:50:00,
2013-02-19 05:00:00,19.3,-48.4,-100.00,WSW,246,0.0,0.0,3,0.00,n/a,n/a,-99.99,Henriksen +1-Wire,2013-02-19 10:00:00,
2013-02-19 05:10:00,19.2,-48.5,-100.00,West,271,0.0,0.0,3,0.00,n/a,n/a,-99.99,Henriksen +1-Wire,2013-02-19 10:10:00,
2013-02-19 05:20:00,19.1,-32.3,-100.00,North,357,0.0,0.0,8,0.00,n/a,n/a,-99.99,Henriksen +1-Wire,2013-02-19 10:20:00,
2013-02-19 05:30:00,18.8,-36.6,-100.00,WNW,286,0.0,0.0,6,0.00,n/a,n/a,-99.99,Henriksen +1-Wire,2013-02-19 10:30:00,
2013-02-19 05:40:00,18.5,-42.1,-100.00,WSW,246,0.0,0.0,5,0.00,n/a,n/a,-99.99,Henriksen +1-Wire,2013-02-19 10:40:00,
2013-02-19 05:50:00,18.4,-50.3,-100.00,WNW,286,0.0,0.0,3,0.00,n/a,n/a,-99.99,Henriksen +1-Wire,2013-02-19 10:50:00,
2013-02-19 06:00:00,18.8,-50.1,-100.00,West,268,0.0,0.0,3,0.00,n/a,n/a,-99.99,Henriksen +1-Wire,2013-02-19 11:00:00,
2013-02-19 06:10:00,19.4,-49.6,-100.00,SW,232,0.0,0.0,3,0.00,n/a,n/a,-99.99,Henriksen +1-Wire,2013-02-19 11:10:00,
2013-02-19 06:20:00,19.7,-48.6,-100.00,WSW,252,0.0,0.0,3,0.00,n/a,n/a,-99.99,Henriksen +1-Wire,2013-02-19 11:20:00,
2013-02-19 06:30:00,20.8,-39.0,-100.00,WSW,249,0.0,0.0,5,0.00,n/a,n/a,-99.99,Henriksen +1-Wire,2013-02-19 11:30:00,
2013-02-19 06:40:00,21.1,-38.0,-100.00,WSW,257,3.0,7.3,5,0.00,n/a,n/a,-99.99,Henriksen +1-Wire,2013-02-19 11:40:00,
2013-02-19 06:50:00,21.1,-30.7,-100.00,West,262,2.1,7.3,8,0.00,n/a,n/a,-99.99,Henriksen +1-Wire,2013-02-19 11:50:00,
2013-02-19 07:00:00,21.2,-25.2,-100.00,West,259,0.0,4.2,11,0.00,n/a,n/a,-99.99,Henriksen +1-Wire,2013-02-19 12:00:00,
2013-02-19 07:10:00,21.2,-25.4,-100.00,WSW,250,1.4,4.2,11,0.00,n/a,n/a,-99.99,Henriksen +1-Wire,2013-02-19 12:10:00,
2013-02-19 07:20:00,21.7,-21.6,-100.00,West,262,1.1,3.2,13,0.00,n/a,n/a,-99.99,Henriksen +1-Wire,2013-02-19 12:20:00,
2013-02-19 07:30:00,21.8,-18.5,-100.00,West,265,0.0,3.4,15,0.00,n/a,n/a,-99.99,Henriksen +1-Wire,2013-02-19 12:30:00,
2013-02-19 07:40:00,22.3,-19.3,-100.00,WNW,291,0.0,0.0,14,0.00,n/a,n/a,-99.99,Henriksen +1-Wire,2013-02-19 12:40:00,
2013-02-19 07:50:00,22.7,-16.8,-100.00,West,276,0.0,0.0,16,0.00,n/a,n/a,-99.99,Henriksen +1-Wire,2013-02-19 12:50:00,
2013-02-19 08:00:00,23.3,-14.4,-100.00,WNW,295,0.1,2.1,18,0.00,n/a,n/a,-99.99,Henriksen +1-Wire,2013-02-19 13:00:00,
2013-02-19 08:10:00,24.2,-10.8,-100.00,West,273,0.0,0.0,20,0.00,n/a,n/a,-99.99,Henriksen +1-Wire,2013-02-19 13:10:00,
2013-02-19 08:20:00,24.5,-12.8,-100.00,WNW,288,0.0,3.1,18,0.00,n/a,n/a,-99.99,Henriksen +1-Wire,2013-02-19 13:20:00,
2013-02-19 08:30:00,24.7,-11.7,-100.00,West,273,0.0,0.0,19,0.00,n/a,n/a,-99.99,Henriksen +1-Wire,2013-02-19 13:30:00,
2013-02-19 08:40:00,25.1,-10.2,-100.00,WNW,282,0.0,0.0,20,0.00,n/a,n/a,-99.99,Henriksen +1-Wire,2013-02-19 13:40:00,
2013-02-19 08:50:00,25.6,-9.2,-100.00,West,280,0.2,2.1,21,0.00,n/a,n/a,-99.99,Henriksen +1-Wire,2013-02-19 13:50:00,
2013-02-19 09:00:00,26.4,-8.4,-100.00,West,269,0.0,4.2,21,0.00,n/a,n/a,-99.99,Henriksen +1-Wire,2013-02-19 14:00:00,
2013-02-19 09:10:00,26.6,-8.6,-100.00,West,265,2.2,4.2,20,0.00,n/a,n/a,-99.99,Henriksen +1-Wire,2013-02-19 14:10:00,
2013-02-19 09:20:00,27.0,-9.6,-100.00,West,273,0.3,3.9,19,0.00,n/a,n/a,-99.99,Henriksen +1-Wire,2013-02-19 14:20:00,
2013-02-19 09:30:00,27.6,-9.3,-100.00,West,269,0.0,4.9,19,0.00,n/a,n/a,-99.99,Henriksen +1-Wire,2013-02-19 14:30:00,
2013-02-19 09:40:00,28.2,-6.8,-100.00,WSW,255,1.2,3.9,21,0.00,n/a,n/a,-99.99,Henriksen +1-Wire,2013-02-19 14:40:00,
2013-02-19 09:50:00,29.2,-8.9,-100.00,SE,130,2.4,5.8,18,0.00,n/a,n/a,-99.99,Henriksen +1-Wire,2013-02-19 14:50:00,
2013-02-19 10:00:00,29.7,-6.1,-100.00,West,264,0.6,4.2,20,0.00,n/a,n/a,-99.99,Henriksen +1-Wire,2013-02-19 15:00:00,
2013-02-19 10:10:00,30.6,-4.7,-100.00,West,269,0.9,3.9,21,0.00,n/a,n/a,-99.99,Henriksen +1-Wire,2013-02-19 15:10:00,
2013-02-19 10:20:00,31.4,-2.9,-100.00,West,268,2.6,6.2,22,0.00,n/a,n/a,-99.99,Henriksen +1-Wire,2013-02-19 15:20:00,
2013-02-19 10:30:00,32.3,-1.8,-100.00,WSW,257,0.1,4.2,22,0.00,n/a,n/a,-99.99,Henriksen +1-Wire,2013-02-19 15:30:00,
2013-02-19 10:40:00,34.2,-1.1,-100.00,WSW,239,2.4,5.9,21,0.00,n/a,n/a,-99.99,Henriksen +1-Wire,2013-02-19 15:40:00,
2013-02-19 10:50:00,37.8,1.0,-100.00,WSW,238,2.1,5.8,20,0.00,n/a,n/a,-99.99,Henriksen +1-Wire,2013-02-19 15:50:00,
2013-02-19 11:00:00,38.2,-0.8,-100.00,East,94,2.5,5.8,18,0.00,n/a,n/a,-99.99,Henriksen +1-Wire,2013-02-19 16:00:00,
2013-02-19 11:10:00,37.4,-0.9,-100.00,WSW,249,3.0,5.9,19,0.00,n/a,n/a,-99.99,Henriksen +1-Wire,2013-02-19 16:10:00,
2013-02-19 11:20:00,37.4,0.7,-100.00,WSW,248,1.1,3.1,21,0.00,n/a,n/a,-99.99,Henriksen +1-Wire,2013-02-19 16:20:00,
2013-02-19 11:30:00,37.4,1.7,-100.00,West,275,2.1,5.8,21,0.00,n/a,n/a,-99.99,Henriksen +1-Wire,2013-02-19 16:30:00,
2013-02-19 11:40:00,38.1,2.4,-100.00,West,261,0.0,6.8,22,0.00,n/a,n/a,-99.99,Henriksen +1-Wire,2013-02-19 16:40:00,
2013-02-19 11:50:00,38.7,2.7,-100.00,North,357,1.0,4.9,21,0.00,n/a,n/a,-99.99,Henriksen +1-Wire,2013-02-19 16:50:00,
2013-02-19 12:00:00,39.3,3.3,-100.00,WSW,255,4.2,6.8,21,0.00,n/a,n/a,-99.99,Henriksen +1-Wire,2013-02-19 17:00:00,
2013-02-19 12:10:00,39.3,3.2,-100.00,WNW,299,1.8,5.8,21,0.00,n/a,n/a,-99.99,Henriksen +1-Wire,2013-02-19 17:10:00,
2013-02-19 12:20:00,40.2,3.3,-100.00,WNW,286,2.1,6.8,21,0.00,n/a,n/a,-99.99,Henriksen +1-Wire,2013-02-19 17:20:00,
2013-02-19 12:30:00,41.2,3.9,-100.00,WNW,300,0.6,5.8,20,0.00,n/a,n/a,-99.99,Henriksen +1-Wire,2013-02-19 17:30:00,
2013-02-19 12:40:00,41.6,4.6,-100.00,WNW,291,0.0,5.1,21,0.00,n/a,n/a,-99.99,Henriksen +1-Wire,2013-02-19 17:40:00,
2013-02-19 12:50:00,41.6,4.4,-100.00,SSW,202,1.2,5.2,21,0.00,n/a,n/a,-99.99,Henriksen +1-Wire,2013-02-19 17:50:00,
2013-02-19 13:00:00,41.6,4.2,-100.00,SE,135,0.5,6.3,20,0.00,n/a,n/a,-99.99,Henriksen +1-Wire,2013-02-19 18:00:00,
2013-02-19 13:10:00,41.6,5.7,-100.00,West,271,1.3,5.2,22,0.00,n/a,n/a,-99.99,Henriksen +1-Wire,2013-02-19 18:10:00,
2013-02-19 13:20:00,42.1,6.9,-100.00,WSW,257,0.8,5.2,23,0.00,n/a,n/a,-99.99,Henriksen +1-Wire,2013-02-19 18:20:00,
2013-02-19 13:30:00,41.9,7.1,-100.00,SE,128,4.8,8.7,23,0.00,n/a,n/a,-99.99,Henriksen +1-Wire,2013-02-19 18:30:00,
2013-02-19 13:40:00,40.8,6.1,-100.00,SE,143,3.8,8.7,23,0.00,n/a,n/a,-99.99,Henriksen +1-Wire,2013-02-19 18:40:00,
2013-02-19 13:50:00,40.3,6.4,-100.00,SE,129,3.1,7.9,24,0.00,n/a,n/a,-99.99,Henriksen +1-Wire,2013-02-19 18:50:00,
2013-02-19 14:00:00,40.1,5.6,-100.00,SE,133,1.8,7.7,23,0.00,n/a,n/a,-99.99,Henriksen +1-Wire,2013-02-19 19:00:00,
2013-02-19 14:10:00,40.0,6.4,-100.00,SE,137,2.3,7.3,24,0.00,n/a,n/a,-99.99,Henriksen +1-Wire,2013-02-19 19:10:00,
2013-02-19 14:20:00,39.4,4.2,-100.00,SE,143,1.8,6.2,22,0.00,n/a,n/a,-99.99,Henriksen +1-Wire,2013-02-19 19:20:00,
2013-02-19 14:30:00,38.7,2.4,-100.00,SE,125,4.0,7.8,21,0.00,n/a,n/a,-99.99,Henriksen +1-Wire,2013-02-19 19:30:00,
2013-02-19 14:40:00,38.4,0.4,-100.00,SE,135,3.3,6.9,19,0.00,n/a,n/a,-99.99,Henriksen +1-Wire,2013-02-19 19:40:00,
2013-02-19 14:50:00,38.6,4.1,-100.00,SE,132,2.3,6.2,23,0.00,n/a,n/a,-99.99,Henriksen +1-Wire,2013-02-19 19:50:00,
2013-02-19 15:00:00,38.3,5.0,-100.00,SSE,150,3.4,8.2,24,0.00,n/a,n/a,-99.99,Henriksen +1-Wire,2013-02-19 20:00:00,
2013-02-19 15:10:00,38.2,5.2,-100.00,SE,127,3.0,6.8,24,0.00,n/a,n/a,-99.99,Henriksen +1-Wire,2013-02-19 20:10:00,
2013-02-19 15:20:00,37.9,6.9,-100.00,SE,140,2.7,4.9,27,0.00,n/a,n/a,-99.99,Henriksen +1-Wire,2013-02-19 20:20:00,
2013-02-19 15:30:00,37.8,7.3,-100.00,ESE,118,2.0,5.9,27,0.00,n/a,n/a,-99.99,Henriksen +1-Wire,2013-02-19 20:30:00,
2013-02-19 15:40:00,37.7,5.8,-100.00,ENE,73,1.5,3.9,26,0.00,n/a,n/a,-99.99,Henriksen +1-Wire,2013-02-19 20:40:00,
2013-02-19 15:50:00,37.3,4.0,-100.00,WSW,254,0.3,4.9,24,0.00,n/a,n/a,-99.99,Henriksen +1-Wire,2013-02-19 20:50:00,
2013-02-19 16:00:00,37.2,5.0,-100.00,WNW,300,0.0,3.9,25,0.00,n/a,n/a,-99.99,Henriksen +1-Wire,2013-02-19 21:00:00,
2013-02-19 16:10:00,37.2,1.5,-100.00,ENE,71,0.0,4.9,21,0.00,n/a,n/a,-99.99,Henriksen +1-Wire,2013-02-19 21:10:00,
2013-02-19 16:20:00,37.1,2.8,-100.00,ENE,71,0.1,3.9,23,0.00,n/a,n/a,-99.99,Henriksen +1-Wire,2013-02-19 21:20:00,
2013-02-19 16:30:00,37.5,5.5,-100.00,SE,134,0.1,2.9,25,0.00,n/a,n/a,-99.99,Henriksen +1-Wire,2013-02-19 21:30:00,
2013-02-19 16:40:00,37.1,3.0,-100.00,SE,141,0.0,3.1,23,0.00,n/a,n/a,-99.99,Henriksen +1-Wire,2013-02-19 21:40:00,
2013-02-19 16:50:00,37.2,3.5,-100.00,ESE,117,0.0,0.0,24,0.00,n/a,n/a,-99.99,Henriksen +1-Wire,2013-02-19 21:50:00,
2013-02-19 17:00:00,36.6,0.7,-100.00,SSE,150,0.0,0.0,21,0.00,n/a,n/a,-99.99,Henriksen +1-Wire,2013-02-19 22:00:00,
2013-02-19 17:10:00,36.3,-2.5,-100.00,WNW,295,0.0,0.0,18,0.00,n/a,n/a,-99.99,Henriksen +1-Wire,2013-02-19 22:10:00,
2013-02-19 17:20:00,36.2,-5.7,-100.00,NE,45,0.1,2.9,16,0.00,n/a,n/a,-99.99,Henriksen +1-Wire,2013-02-19 22:20:00,
2013-02-19 17:30:00,36.5,-9.5,-100.00,ESE,120,0.5,4.9,13,0.00,n/a,n/a,-99.99,Henriksen +1-Wire,2013-02-19 22:30:00,
2013-02-19 17:40:00,36.2,-11.4,-100.00,NE,45,0.0,0.0,12,0.00,n/a,n/a,-99.99,Henriksen +1-Wire,2013-02-19 22:40:00,
2013-02-19 17:50:00,35.9,-10.0,-100.00,WNW,284,0.0,2.9,13,0.00,n/a,n/a,-99.99,Henriksen +1-Wire,2013-02-19 22:50:00,
2013-02-19 18:00:00,35.5,-8.1,-100.00,WSW,250,0.0,1.0,14,0.00,n/a,n/a,-99.99,Henriksen +1-Wire,2013-02-19 23:00:00,
2013-02-19 18:10:00,35.4,-8.1,-100.00,West,263,0.9,5.8,15,0.00,n/a,n/a,-99.99,Henriksen +1-Wire,2013-02-19 23:10:00,
2013-02-19 18:20:00,35.3,-8.8,-100.00,NE,45,0.0,1.0,14,0.00,n/a,n/a,-99.99,Henriksen +1-Wire,2013-02-19 23:20:00,
2013-02-19 18:30:00,35.1,-11.5,-100.00,NE,45,0.0,0.0,12,0.00,n/a,n/a,-99.99,Henriksen +1-Wire,2013-02-19 23:30:00,
2013-02-19 18:40:00,34.9,-11.4,-100.00,WSW,245,0.0,0.0,13,0.00,n/a,n/a,-99.99,Henriksen +1-Wire,2013-02-19 23:40:00,
2013-02-19 18:50:00,35.0,-11.0,-100.00,WSW,255,0.0,0.0,13,0.01,n/a,n/a,-99.99,Henriksen +1-Wire,2013-02-19 23:50:00,
2013-02-19 19:00:00,35.1,-11.0,-100.00,WSW,252,0.0,0.0,13,0.02,n/a,n/a,-99.99,Henriksen +1-Wire,2013-02-20 00:00:00,
2013-02-19 19:10:00,35.2,-6.3,-100.00,SE,141,0.0,0.0,16,0.02,n/a,n/a,-99.99,Henriksen +1-Wire,2013-02-20 00:10:00,
2013-02-19 19:20:00,34.9,-4.2,-100.00,SE,137,0.0,0.0,18,0.03,n/a,n/a,-99.99,Henriksen +1-Wire,2013-02-20 00:20:00,
2013-02-19 19:30:00,35.0,-7.4,-100.00,SE,134,0.0,4.2,15,0.05,n/a,n/a,-99.99,Henriksen +1-Wire,2013-02-20 00:30:00,
2013-02-19 19:40:00,35.0,-10.3,-100.00,SE,132,0.2,2.1,13,0.05,n/a,n/a,-99.99,Henriksen +1-Wire,2013-02-20 00:40:00,
2013-02-19 19:50:00,35.2,-7.7,-100.00,SE,129,0.0,5.2,15,0.05,n/a,n/a,-99.99,Henriksen +1-Wire,2013-02-20 00:50:00,
2013-02-19 20:00:00,35.3,-6.4,-100.00,SE,128,0.0,0.0,16,0.06,n/a,n/a,-99.99,Henriksen +1-Wire,2013-02-20 01:00:00,
2013-02-19 20:10:00,35.5,-10.7,-100.00,South,185,0.0,5.8,13,0.08,n/a,n/a,-99.99,Henriksen +1-Wire,2013-02-20 01:10:00,
2013-02-19 20:20:00,35.4,-11.5,-100.00,West,268,0.0,1.0,12,0.08,n/a,n/a,-99.99,Henriksen +1-Wire,2013-02-20 01:20:00,
2013-02-19 20:30:00,36.0,-9.7,-100.00,WNW,292,0.0,3.9,13,0.09,n/a,n/a,-99.99,Henriksen +1-Wire,2013-02-20 01:30:00,
2013-02-19 20:40:00,35.7,-9.1,-100.00,NE,45,1.5,4.9,14,0.10,n/a,n/a,-99.99,Henriksen +1-Wire,2013-02-20 01:40:00,
2013-02-19 20:50:00,35.9,-8.3,-100.00,NNW,333,0.0,2.0,14,0.09,n/a,n/a,-99.99,Henriksen +1-Wire,2013-02-20 01:50:00,
2013-02-19 21:00:00,35.7,-5.2,-100.00,NNW,337,0.0,0.0,17,0.08,n/a,n/a,-99.99,Henriksen +1-Wire,2013-02-20 02:00:00,
2013-02-19 21:10:00,35.5,-4.0,-100.00,ESE,110,0.0,3.1,18,0.06,n/a,n/a,-99.99,Henriksen +1-Wire,2013-02-20 02:10:00,
2013-02-19 21:20:00,35.5,-7.9,-100.00,NE,49,0.0,1.0,15,0.06,n/a,n/a,-99.99,Henriksen +1-Wire,2013-02-20 02:20:00,
2013-02-19 21:30:00,36.4,-3.9,-100.00,WNW,292,0.0,0.0,17,0.05,n/a,n/a,-99.99,Henriksen +1-Wire,2013-02-20 02:30:00,
2013-02-19 21:40:00,35.4,-4.4,-100.00,WNW,292,0.0,0.0,17,0.05,n/a,n/a,-99.99,Henriksen +1-Wire,2013-02-20 02:40:00,
2013-02-19 21:50:00,34.7,-5.7,-100.00,WNW,292,1.7,5.2,17,0.04,n/a,n/a,-99.99,Henriksen +1-Wire,2013-02-20 02:50:00,
2013-02-19 22:00:00,36.1,-2.7,-100.00,WSW,248,0.0,3.2,18,0.06,n/a,n/a,-99.99,Henriksen +1-Wire,2013-02-20 03:00:00,
2013-02-19 22:10:00,35.6,-3.0,-100.00,SSW,192,0.0,0.0,18,0.08,n/a,n/a,-99.99,Henriksen +1-Wire,2013-02-20 03:10:00,
2013-02-19 22:20:00,34.8,-3.9,-100.00,SW,232,0.0,0.0,18,0.07,n/a,n/a,-99.99,Henriksen +1-Wire,2013-02-20 03:20:00,
2013-02-19 22:30:00,34.7,-4.9,-100.00,SW,232,0.0,0.0,17,0.07,n/a,n/a,-99.99,Henriksen +1-Wire,2013-02-20 03:30:00,
2013-02-19 22:40:00,34.3,-8.6,-100.00,South,184,0.0,0.0,15,0.07,n/a,n/a,-99.99,Henriksen +1-Wire,2013-02-20 03:40:00,
2013-02-19 22:50:00,34.5,-7.1,-100.00,South,189,0.0,0.0,16,0.08,n/a,n/a,-99.99,Henriksen +1-Wire,2013-02-20 03:50:00,
2013-02-19 23:00:00,34.2,-4.9,-100.00,West,274,0.0,0.0,18,0.07,n/a,n/a,-99.99,Henriksen +1-Wire,2013-02-20 04:00:00,
2013-02-19 23:10:00,33.9,-8.3,-100.00,South,171,0.0,0.0,15,0.05,n/a,n/a,-99.99,Henriksen +1-Wire,2013-02-20 04:10:00,
2013-02-19 23:20:00,33.8,-6.6,-100.00,WNW,296,0.0,0.0,17,0.04,n/a,n/a,-99.99,Henriksen +1-Wire,2013-02-20 04:20:00,
2013-02-19 23:30:00,34.2,-9.8,-100.00,WNW,291,0.0,0.0,14,0.03,n/a,n/a,-99.99,Henriksen +1-Wire,2013-02-20 04:30:00,
2013-02-19 23:40:00,33.9,-8.5,-100.00,NE,37,0.0,0.0,15,0.02,n/a,n/a,-99.99,Henriksen +1-Wire,2013-02-20 04:40:00,
2013-02-19 23:50:00,33.8,-5.8,-100.00,WSW,248,0.0,0.0,17,0.02,n/a,n/a,-99.99,Henriksen +1-Wire,2013-02-20 04:50:00,